sensor_id;sensor_type;location;lat;lon;timestamp;P1;durP1;ratioP1;P2;durP2;ratioP2
47545;SDS011;50104;52.002;4.688;2023-03-21T00:02:57;20.95;;;13.07;;
47545;SDS011;50104;52.002;4.688;2023-03-21T00:07:58;23.27;;;13.40;;
47545;SDS011;50104;52.002;4.688;2023-03-21T00:12:58;18.52;;;13.07;;
47545;SDS011;50104;52.002;4.688;2023-03-21T00:17:59;19.83;;;13.93;;
47545;SDS011;50104;52.002;4.688;2023-03-21T00:23:03;21.70;;;13.35;;
47545;SDS011;50104;52.002;4.688;2023-03-21T00:28:03;20.35;;;13.88;;
47545;SDS011;50104;52.002;4.688;2023-03-21T00:33:04;15.07;;;11.75;;
47545;SDS011;50104;52.002;4.688;2023-03-21T00:38:06;21.27;;;13.48;;
47545;SDS011;50104;52.002;4.688;2023-03-21T00:43:07;24.45;;;13.25;;
47545;SDS011;50104;52.002;4.688;2023-03-21T00:48:07;26.33;;;16.63;;
47545;SDS011;50104;52.002;4.688;2023-03-21T00:53:09;25.10;;;14.93;;
47545;SDS011;50104;52.002;4.688;2023-03-21T00:58:10;23.10;;;14.52;;
47545;SDS011;50104;52.002;4.688;2023-03-21T01:03:12;23.67;;;15.32;;
47545;SDS011;50104;52.002;4.688;2023-03-21T01:08:15;23.98;;;14.27;;
47545;SDS011;50104;52.002;4.688;2023-03-21T01:13:18;25.00;;;15.52;;
47545;SDS011;50104;52.002;4.688;2023-03-21T01:18:22;21.75;;;15.18;;
47545;SDS011;50104;52.002;4.688;2023-03-21T01:23:28;26.25;;;15.23;;
47545;SDS011;50104;52.002;4.688;2023-03-21T01:28:29;24.95;;;15.38;;
47545;SDS011;50104;52.002;4.688;2023-03-21T01:33:31;26.98;;;15.15;;
47545;SDS011;50104;52.002;4.688;2023-03-21T01:38:33;24.00;;;16.48;;
47545;SDS011;50104;52.002;4.688;2023-03-21T01:43:34;26.67;;;16.02;;
47545;SDS011;50104;52.002;4.688;2023-03-21T01:48:36;28.73;;;16.20;;
47545;SDS011;50104;52.002;4.688;2023-03-21T01:53:42;26.85;;;15.07;;
47545;SDS011;50104;52.002;4.688;2023-03-21T01:58:44;23.35;;;13.23;;
47545;SDS011;50104;52.002;4.688;2023-03-21T02:03:47;22.13;;;12.02;;
47545;SDS011;50104;52.002;4.688;2023-03-21T02:08:49;18.65;;;10.63;;
47545;SDS011;50104;52.002;4.688;2023-03-21T02:13:51;19.80;;;11.07;;
47545;SDS011;50104;52.002;4.688;2023-03-21T02:35:46;18.13;;;10.90;;
47545;SDS011;50104;52.002;4.688;2023-03-21T02:41:10;20.60;;;10.35;;
47545;SDS011;50104;52.002;4.688;2023-03-21T02:51:56;18.90;;;9.95;;
47545;SDS011;50104;52.002;4.688;2023-03-21T02:56:58;22.92;;;10.57;;
47545;SDS011;50104;52.002;4.688;2023-03-21T03:02:02;17.58;;;9.57;;
47545;SDS011;50104;52.002;4.688;2023-03-21T03:07:38;16.15;;;9.80;;
47545;SDS011;50104;52.002;4.688;2023-03-21T03:18:19;16.77;;;9.70;;
47545;SDS011;50104;52.002;4.688;2023-03-21T03:23:32;16.73;;;9.15;;
47545;SDS011;50104;52.002;4.688;2023-03-21T03:28:45;15.70;;;9.15;;
47545;SDS011;50104;52.002;4.688;2023-03-21T03:33:52;18.08;;;10.13;;
47545;SDS011;50104;52.002;4.688;2023-03-21T03:38:55;18.80;;;10.43;;
47545;SDS011;50104;52.002;4.688;2023-03-21T03:43:58;18.83;;;9.82;;
47545;SDS011;50104;52.002;4.688;2023-03-21T03:49:01;15.07;;;9.00;;
47545;SDS011;50104;52.002;4.688;2023-03-21T03:54:12;23.08;;;10.57;;
47545;SDS011;50104;52.002;4.688;2023-03-21T03:59:19;20.83;;;10.63;;
47545;SDS011;50104;52.002;4.688;2023-03-21T04:04:24;18.15;;;9.55;;
47545;SDS011;50104;52.002;4.688;2023-03-21T04:09:27;16.90;;;9.43;;
47545;SDS011;50104;52.002;4.688;2023-03-21T04:14:29;15.52;;;9.80;;
47545;SDS011;50104;52.002;4.688;2023-03-21T04:19:30;22.00;;;10.95;;
47545;SDS011;50104;52.002;4.688;2023-03-21T04:24:31;27.08;;;10.75;;
47545;SDS011;50104;52.002;4.688;2023-03-21T04:29:33;14.15;;;9.95;;
47545;SDS011;50104;52.002;4.688;2023-03-21T04:34:33;15.63;;;9.93;;
47545;SDS011;50104;52.002;4.688;2023-03-21T04:39:39;23.65;;;11.00;;
47545;SDS011;50104;52.002;4.688;2023-03-21T04:44:40;17.02;;;11.00;;
47545;SDS011;50104;52.002;4.688;2023-03-21T04:49:41;16.70;;;11.15;;
47545;SDS011;50104;52.002;4.688;2023-03-21T04:54:43;19.70;;;11.70;;
47545;SDS011;50104;52.002;4.688;2023-03-21T04:59:43;20.98;;;11.43;;
47545;SDS011;50104;52.002;4.688;2023-03-21T05:04:45;23.70;;;12.43;;
47545;SDS011;50104;52.002;4.688;2023-03-21T05:09:45;18.40;;;11.38;;
47545;SDS011;50104;52.002;4.688;2023-03-21T05:14:47;20.50;;;11.98;;
47545;SDS011;50104;52.002;4.688;2023-03-21T05:19:50;26.33;;;12.43;;
47545;SDS011;50104;52.002;4.688;2023-03-21T05:24:52;27.33;;;13.30;;
47545;SDS011;50104;52.002;4.688;2023-03-21T05:29:54;26.08;;;12.55;;
47545;SDS011;50104;52.002;4.688;2023-03-21T05:34:55;22.63;;;12.55;;
47545;SDS011;50104;52.002;4.688;2023-03-21T05:39:56;20.45;;;11.60;;
47545;SDS011;50104;52.002;4.688;2023-03-21T05:44:57;23.23;;;12.38;;
47545;SDS011;50104;52.002;4.688;2023-03-21T05:49:58;22.85;;;11.70;;
47545;SDS011;50104;52.002;4.688;2023-03-21T05:54:58;25.98;;;12.32;;
47545;SDS011;50104;52.002;4.688;2023-03-21T06:00:00;19.08;;;11.05;;
47545;SDS011;50104;52.002;4.688;2023-03-21T06:05:01;23.35;;;11.52;;
47545;SDS011;50104;52.002;4.688;2023-03-21T06:10:03;22.08;;;11.25;;
47545;SDS011;50104;52.002;4.688;2023-03-21T06:15:05;23.92;;;13.70;;
47545;SDS011;50104;52.002;4.688;2023-03-21T06:20:08;22.65;;;11.82;;
47545;SDS011;50104;52.002;4.688;2023-03-21T06:25:10;22.65;;;11.73;;
47545;SDS011;50104;52.002;4.688;2023-03-21T06:30:11;22.95;;;11.70;;
47545;SDS011;50104;52.002;4.688;2023-03-21T06:35:13;22.10;;;11.60;;
47545;SDS011;50104;52.002;4.688;2023-03-21T06:40:14;28.75;;;11.65;;
47545;SDS011;50104;52.002;4.688;2023-03-21T06:45:15;18.45;;;11.05;;
47545;SDS011;50104;52.002;4.688;2023-03-21T06:50:16;19.00;;;11.27;;
47545;SDS011;50104;52.002;4.688;2023-03-21T06:55:18;21.67;;;11.20;;
47545;SDS011;50104;52.002;4.688;2023-03-21T07:00:22;16.55;;;10.25;;
47545;SDS011;50104;52.002;4.688;2023-03-21T07:05:23;21.67;;;9.93;;
47545;SDS011;50104;52.002;4.688;2023-03-21T07:15:59;22.55;;;10.48;;
47545;SDS011;50104;52.002;4.688;2023-03-21T07:21:00;19.92;;;9.60;;
47545;SDS011;50104;52.002;4.688;2023-03-21T07:26:01;16.45;;;8.95;;
47545;SDS011;50104;52.002;4.688;2023-03-21T07:31:03;17.83;;;8.48;;
47545;SDS011;50104;52.002;4.688;2023-03-21T07:36:08;19.05;;;8.55;;
47545;SDS011;50104;52.002;4.688;2023-03-21T07:41:12;19.33;;;8.35;;
47545;SDS011;50104;52.002;4.688;2023-03-21T07:46:13;17.50;;;8.90;;
47545;SDS011;50104;52.002;4.688;2023-03-21T07:51:14;20.00;;;9.00;;
47545;SDS011;50104;52.002;4.688;2023-03-21T07:56:15;18.85;;;8.77;;
47545;SDS011;50104;52.002;4.688;2023-03-21T08:01:16;15.70;;;8.18;;
47545;SDS011;50104;52.002;4.688;2023-03-21T08:06:16;17.50;;;9.05;;
47545;SDS011;50104;52.002;4.688;2023-03-21T08:11:17;16.27;;;8.93;;
47545;SDS011;50104;52.002;4.688;2023-03-21T08:16:20;15.88;;;9.05;;
47545;SDS011;50104;52.002;4.688;2023-03-21T08:21:21;14.10;;;8.23;;
47545;SDS011;50104;52.002;4.688;2023-03-21T08:26:22;16.02;;;7.95;;
47545;SDS011;50104;52.002;4.688;2023-03-21T08:31:25;16.63;;;8.18;;
47545;SDS011;50104;52.002;4.688;2023-03-21T08:36:27;18.85;;;7.85;;
47545;SDS011;50104;52.002;4.688;2023-03-21T08:41:30;15.45;;;7.80;;
47545;SDS011;50104;52.002;4.688;2023-03-21T08:46:32;17.85;;;9.20;;
47545;SDS011;50104;52.002;4.688;2023-03-21T08:51:36;18.17;;;8.70;;
47545;SDS011;50104;52.002;4.688;2023-03-21T08:56:37;19.33;;;8.73;;
47545;SDS011;50104;52.002;4.688;2023-03-21T09:01:38;14.30;;;8.52;;
47545;SDS011;50104;52.002;4.688;2023-03-21T09:06:39;14.25;;;7.95;;
47545;SDS011;50104;52.002;4.688;2023-03-21T09:11:48;16.73;;;8.25;;
47545;SDS011;50104;52.002;4.688;2023-03-21T09:16:49;13.23;;;8.43;;
47545;SDS011;50104;52.002;4.688;2023-03-21T09:21:51;15.77;;;8.43;;
47545;SDS011;50104;52.002;4.688;2023-03-21T09:26:52;14.18;;;8.02;;
47545;SDS011;50104;52.002;4.688;2023-03-21T09:31:54;19.10;;;8.02;;
47545;SDS011;50104;52.002;4.688;2023-03-21T09:36:55;14.77;;;8.52;;
47545;SDS011;50104;52.002;4.688;2023-03-21T09:42:02;15.65;;;8.43;;
47545;SDS011;50104;52.002;4.688;2023-03-21T09:47:30;13.07;;;7.72;;
47545;SDS011;50104;52.002;4.688;2023-03-21T09:57:59;21.92;;;9.60;;
47545;SDS011;50104;52.002;4.688;2023-03-21T10:03:31;13.02;;;8.30;;
47545;SDS011;50104;52.002;4.688;2023-03-21T10:08:37;14.55;;;8.32;;
47545;SDS011;50104;52.002;4.688;2023-03-21T10:13:52;19.55;;;10.07;;
47545;SDS011;50104;52.002;4.688;2023-03-21T10:19:02;14.53;;;8.87;;
47545;SDS011;50104;52.002;4.688;2023-03-21T10:24:11;16.05;;;8.90;;
47545;SDS011;50104;52.002;4.688;2023-03-21T10:29:18;13.23;;;8.57;;
47545;SDS011;50104;52.002;4.688;2023-03-21T10:34:27;14.40;;;8.30;;
47545;SDS011;50104;52.002;4.688;2023-03-21T10:44:38;13.70;;;8.50;;
47545;SDS011;50104;52.002;4.688;2023-03-21T10:49:39;17.33;;;8.50;;
47545;SDS011;50104;52.002;4.688;2023-03-21T10:54:39;17.15;;;8.77;;
47545;SDS011;50104;52.002;4.688;2023-03-21T10:59:45;14.68;;;8.50;;
47545;SDS011;50104;52.002;4.688;2023-03-21T11:04:55;13.95;;;8.35;;
47545;SDS011;50104;52.002;4.688;2023-03-21T11:10:12;15.07;;;7.35;;
47545;SDS011;50104;52.002;4.688;2023-03-21T11:15:27;12.18;;;7.95;;
47545;SDS011;50104;52.002;4.688;2023-03-21T11:20:52;15.02;;;8.57;;
47545;SDS011;50104;52.002;4.688;2023-03-21T11:25:57;13.35;;;7.63;;
47545;SDS011;50104;52.002;4.688;2023-03-21T11:31:00;12.20;;;8.43;;
47545;SDS011;50104;52.002;4.688;2023-03-21T11:36:04;11.55;;;7.68;;
47545;SDS011;50104;52.002;4.688;2023-03-21T11:41:22;11.52;;;6.90;;
47545;SDS011;50104;52.002;4.688;2023-03-21T11:46:33;12.15;;;7.03;;
47545;SDS011;50104;52.002;4.688;2023-03-21T11:51:47;12.40;;;8.32;;
47545;SDS011;50104;52.002;4.688;2023-03-21T12:25:10;10.93;;;8.60;;
47545;SDS011;50104;52.002;4.688;2023-03-21T12:30:32;10.45;;;6.95;;
47545;SDS011;50104;52.002;4.688;2023-03-21T12:36:15;13.73;;;6.55;;
47545;SDS011;50104;52.002;4.688;2023-03-21T12:41:24;9.40;;;6.53;;
47545;SDS011;50104;52.002;4.688;2023-03-21T13:08:33;11.75;;;7.78;;
47545;SDS011;50104;52.002;4.688;2023-03-21T13:25:21;12.70;;;6.90;;
47545;SDS011;50104;52.002;4.688;2023-03-21T13:30:25;13.20;;;6.78;;
47545;SDS011;50104;52.002;4.688;2023-03-21T13:35:32;13.90;;;8.15;;
47545;SDS011;50104;52.002;4.688;2023-03-21T13:40:39;8.32;;;6.20;;
47545;SDS011;50104;52.002;4.688;2023-03-21T13:45:56;10.98;;;6.20;;
47545;SDS011;50104;52.002;4.688;2023-03-21T13:56:43;10.32;;;6.03;;
47545;SDS011;50104;52.002;4.688;2023-03-21T14:01:57;9.70;;;6.25;;
47545;SDS011;50104;52.002;4.688;2023-03-21T14:07:31;10.98;;;6.72;;
47545;SDS011;50104;52.002;4.688;2023-03-21T14:12:39;9.95;;;5.95;;
47545;SDS011;50104;52.002;4.688;2023-03-21T14:17:53;7.78;;;6.22;;
47545;SDS011;50104;52.002;4.688;2023-03-21T14:23:02;9.15;;;6.53;;
47545;SDS011;50104;52.002;4.688;2023-03-21T14:28:07;9.40;;;6.13;;
47545;SDS011;50104;52.002;4.688;2023-03-21T14:38:37;8.85;;;5.90;;
47545;SDS011;50104;52.002;4.688;2023-03-21T14:43:39;10.45;;;6.10;;
47545;SDS011;50104;52.002;4.688;2023-03-21T14:48:40;5.90;;;5.20;;
47545;SDS011;50104;52.002;4.688;2023-03-21T14:53:41;7.43;;;5.18;;
47545;SDS011;50104;52.002;4.688;2023-03-21T14:58:44;6.05;;;5.43;;
47545;SDS011;50104;52.002;4.688;2023-03-21T15:03:48;9.43;;;6.30;;
47545;SDS011;50104;52.002;4.688;2023-03-21T15:08:58;10.82;;;5.40;;
47545;SDS011;50104;52.002;4.688;2023-03-21T15:14:06;8.52;;;5.47;;
47545;SDS011;50104;52.002;4.688;2023-03-21T15:19:15;8.00;;;5.38;;
47545;SDS011;50104;52.002;4.688;2023-03-21T15:24:24;6.90;;;4.90;;
47545;SDS011;50104;52.002;4.688;2023-03-21T15:29:29;7.82;;;5.07;;
47545;SDS011;50104;52.002;4.688;2023-03-21T15:34:32;6.88;;;4.65;;
47545;SDS011;50104;52.002;4.688;2023-03-21T15:39:33;7.88;;;5.05;;
47545;SDS011;50104;52.002;4.688;2023-03-21T15:44:35;6.90;;;5.00;;
47545;SDS011;50104;52.002;4.688;2023-03-21T15:49:38;10.50;;;4.68;;
47545;SDS011;50104;52.002;4.688;2023-03-21T15:54:49;7.95;;;3.83;;
47545;SDS011;50104;52.002;4.688;2023-03-21T15:59:55;8.70;;;3.92;;
47545;SDS011;50104;52.002;4.688;2023-03-21T16:05:28;8.25;;;4.38;;
47545;SDS011;50104;52.002;4.688;2023-03-21T16:10:33;6.95;;;3.75;;
47545;SDS011;50104;52.002;4.688;2023-03-21T16:15:36;5.15;;;3.22;;
47545;SDS011;50104;52.002;4.688;2023-03-21T16:20:38;4.18;;;3.40;;
47545;SDS011;50104;52.002;4.688;2023-03-21T16:25:45;4.53;;;3.42;;
47545;SDS011;50104;52.002;4.688;2023-03-21T16:30:46;7.88;;;4.55;;
47545;SDS011;50104;52.002;4.688;2023-03-21T16:35:46;7.25;;;3.92;;
47545;SDS011;50104;52.002;4.688;2023-03-21T16:40:47;4.50;;;3.58;;
47545;SDS011;50104;52.002;4.688;2023-03-21T16:45:50;5.28;;;3.92;;
47545;SDS011;50104;52.002;4.688;2023-03-21T16:50:51;7.32;;;3.53;;
47545;SDS011;50104;52.002;4.688;2023-03-21T16:55:52;4.88;;;3.90;;
47545;SDS011;50104;52.002;4.688;2023-03-21T17:00:53;4.75;;;3.55;;
47545;SDS011;50104;52.002;4.688;2023-03-21T17:05:54;6.78;;;4.28;;
47545;SDS011;50104;52.002;4.688;2023-03-21T17:10:55;6.70;;;3.90;;
47545;SDS011;50104;52.002;4.688;2023-03-21T17:15:58;8.05;;;4.00;;
47545;SDS011;50104;52.002;4.688;2023-03-21T17:20:59;6.03;;;4.03;;
47545;SDS011;50104;52.002;4.688;2023-03-21T17:25:59;5.70;;;4.15;;
47545;SDS011;50104;52.002;4.688;2023-03-21T17:31:01;5.85;;;4.15;;
47545;SDS011;50104;52.002;4.688;2023-03-21T17:36:02;7.25;;;2.88;;
47545;SDS011;50104;52.002;4.688;2023-03-21T17:41:04;7.05;;;2.70;;
47545;SDS011;50104;52.002;4.688;2023-03-21T17:46:13;5.18;;;1.50;;
47545;SDS011;50104;52.002;4.688;2023-03-21T17:51:22;6.57;;;1.80;;
47545;SDS011;50104;52.002;4.688;2023-03-21T17:56:26;5.13;;;1.48;;
47545;SDS011;50104;52.002;4.688;2023-03-21T18:01:30;8.60;;;1.48;;
47545;SDS011;50104;52.002;4.688;2023-03-21T18:06:31;3.33;;;0.85;;
47545;SDS011;50104;52.002;4.688;2023-03-21T18:11:33;2.58;;;0.90;;
47545;SDS011;50104;52.002;4.688;2023-03-21T18:16:34;2.17;;;0.80;;
47545;SDS011;50104;52.002;4.688;2023-03-21T18:21:34;6.55;;;1.08;;
47545;SDS011;50104;52.002;4.688;2023-03-21T18:26:37;5.53;;;1.67;;
47545;SDS011;50104;52.002;4.688;2023-03-21T18:31:38;5.60;;;1.33;;
47545;SDS011;50104;52.002;4.688;2023-03-21T18:36:39;4.78;;;1.52;;
47545;SDS011;50104;52.002;4.688;2023-03-21T18:41:40;3.30;;;1.60;;
47545;SDS011;50104;52.002;4.688;2023-03-21T18:46:41;6.13;;;1.95;;
47545;SDS011;50104;52.002;4.688;2023-03-21T18:51:46;5.63;;;2.03;;
47545;SDS011;50104;52.002;4.688;2023-03-21T18:56:47;6.43;;;2.05;;
47545;SDS011;50104;52.002;4.688;2023-03-21T19:01:50;3.45;;;1.83;;
47545;SDS011;50104;52.002;4.688;2023-03-21T19:06:51;7.03;;;2.50;;
47545;SDS011;50104;52.002;4.688;2023-03-21T19:11:52;9.82;;;2.20;;
47545;SDS011;50104;52.002;4.688;2023-03-21T19:16:53;6.13;;;2.45;;
47545;SDS011;50104;52.002;4.688;2023-03-21T19:21:55;6.00;;;2.15;;
47545;SDS011;50104;52.002;4.688;2023-03-21T19:26:56;7.30;;;2.70;;
47545;SDS011;50104;52.002;4.688;2023-03-21T19:31:57;11.07;;;2.45;;
47545;SDS011;50104;52.002;4.688;2023-03-21T19:36:58;14.88;;;3.85;;
47545;SDS011;50104;52.002;4.688;2023-03-21T19:41:59;9.30;;;3.70;;
47545;SDS011;50104;52.002;4.688;2023-03-21T19:47:02;5.38;;;3.22;;
47545;SDS011;50104;52.002;4.688;2023-03-21T19:52:02;5.60;;;3.20;;
47545;SDS011;50104;52.002;4.688;2023-03-21T19:57:03;7.65;;;4.20;;
47545;SDS011;50104;52.002;4.688;2023-03-21T20:02:04;8.40;;;4.07;;
47545;SDS011;50104;52.002;4.688;2023-03-21T20:07:05;9.38;;;4.07;;
47545;SDS011;50104;52.002;4.688;2023-03-21T20:12:06;8.63;;;3.78;;
47545;SDS011;50104;52.002;4.688;2023-03-21T20:17:07;6.60;;;3.22;;
47545;SDS011;50104;52.002;4.688;2023-03-21T20:22:08;3.22;;;2.72;;
47545;SDS011;50104;52.002;4.688;2023-03-21T20:27:09;5.15;;;2.97;;
47545;SDS011;50104;52.002;4.688;2023-03-21T20:32:09;3.28;;;2.65;;
47545;SDS011;50104;52.002;4.688;2023-03-21T20:37:10;6.88;;;2.13;;
47545;SDS011;50104;52.002;4.688;2023-03-21T20:42:11;5.93;;;2.45;;
47545;SDS011;50104;52.002;4.688;2023-03-21T20:47:12;8.07;;;2.38;;
47545;SDS011;50104;52.002;4.688;2023-03-21T20:52:13;5.20;;;2.38;;
47545;SDS011;50104;52.002;4.688;2023-03-21T20:57:14;7.18;;;2.03;;
47545;SDS011;50104;52.002;4.688;2023-03-21T21:02:16;6.78;;;2.20;;
47545;SDS011;50104;52.002;4.688;2023-03-21T21:07:17;9.18;;;2.92;;
47545;SDS011;50104;52.002;4.688;2023-03-21T21:12:20;8.18;;;2.10;;
47545;SDS011;50104;52.002;4.688;2023-03-21T21:17:26;6.95;;;2.35;;
47545;SDS011;50104;52.002;4.688;2023-03-21T21:22:29;6.35;;;2.50;;
47545;SDS011;50104;52.002;4.688;2023-03-21T21:27:31;7.15;;;2.50;;
47545;SDS011;50104;52.002;4.688;2023-03-21T21:32:32;8.70;;;2.60;;
47545;SDS011;50104;52.002;4.688;2023-03-21T21:37:33;5.43;;;2.10;;
47545;SDS011;50104;52.002;4.688;2023-03-21T21:42:35;8.18;;;2.20;;
47545;SDS011;50104;52.002;4.688;2023-03-21T21:47:36;7.53;;;1.90;;
47545;SDS011;50104;52.002;4.688;2023-03-21T21:52:37;7.65;;;1.80;;
47545;SDS011;50104;52.002;4.688;2023-03-21T21:57:38;13.07;;;3.85;;
47545;SDS011;50104;52.002;4.688;2023-03-21T22:02:41;6.40;;;2.08;;
47545;SDS011;50104;52.002;4.688;2023-03-21T22:07:42;10.63;;;1.92;;
47545;SDS011;50104;52.002;4.688;2023-03-21T22:12:45;12.18;;;2.78;;
47545;SDS011;50104;52.002;4.688;2023-03-21T22:17:45;8.45;;;1.95;;
47545;SDS011;50104;52.002;4.688;2023-03-21T22:22:46;8.18;;;1.95;;
47545;SDS011;50104;52.002;4.688;2023-03-21T22:27:49;11.13;;;3.08;;
47545;SDS011;50104;52.002;4.688;2023-03-21T22:32:50;10.77;;;3.22;;
47545;SDS011;50104;52.002;4.688;2023-03-21T22:37:51;8.30;;;1.58;;
47545;SDS011;50104;52.002;4.688;2023-03-21T22:42:52;13.13;;;2.10;;
47545;SDS011;50104;52.002;4.688;2023-03-21T22:47:52;6.45;;;1.50;;
47545;SDS011;50104;52.002;4.688;2023-03-21T22:52:53;6.43;;;1.50;;
47545;SDS011;50104;52.002;4.688;2023-03-21T22:57:59;7.22;;;1.75;;
47545;SDS011;50104;52.002;4.688;2023-03-21T23:03:00;17.45;;;2.45;;
47545;SDS011;50104;52.002;4.688;2023-03-21T23:08:00;12.57;;;2.53;;
47545;SDS011;50104;52.002;4.688;2023-03-21T23:13:01;8.25;;;1.90;;
47545;SDS011;50104;52.002;4.688;2023-03-21T23:18:03;6.07;;;1.60;;
47545;SDS011;50104;52.002;4.688;2023-03-21T23:23:04;6.45;;;1.75;;
47545;SDS011;50104;52.002;4.688;2023-03-21T23:28:05;10.30;;;1.85;;
47545;SDS011;50104;52.002;4.688;2023-03-21T23:33:07;5.53;;;2.63;;
47545;SDS011;50104;52.002;4.688;2023-03-21T23:38:08;5.97;;;2.20;;
47545;SDS011;50104;52.002;4.688;2023-03-21T23:43:10;8.02;;;2.75;;
47545;SDS011;50104;52.002;4.688;2023-03-21T23:48:11;6.10;;;2.20;;
47545;SDS011;50104;52.002;4.688;2023-03-21T23:53:11;8.48;;;1.92;;
47545;SDS011;50104;52.002;4.688;2023-03-21T23:58:12;10.38;;;1.80;;
